EastWest Aircraft Sales has several offices across the USA. See map for information on the nearest airstrips.

Naples Municipal Airport

Available data for KAPF from the past 2 hours
NAPLES MUNICIPAL, FL
Metar
KAPF 190253Z AUTO 23003KT 10SM CLR 30/25 A3001 RMK AO2 SLP162 T03000250 53008

02:53 UTC

Wind: 230° 3kt

Visibility: 10 SM

Sky:

Temp: 30 deg C / 86 deg F

Dewpoint: 25 deg C / 77 deg F

Pressure: 30.01 inHg

TAF
KAPF 190258Z 1903/1924 23003KT P6SM SKC FM191700 24010KT P6SM SCT035

Hillsboro Airport

Available data for KHIO from the past 2 hours
HILLSBORO/PORTLD, OR
Metar
KHIO 190253Z 33008KT 10SM CLR 24/13 A3011 RMK AO2 SLP193 T02440128 55004

02:53 UTC

Wind: 330° 8kt

Visibility: 10 SM

Sky:

Temp: 24 deg C / 75.2 deg F

Dewpoint: 13 deg C / 55.4 deg F

Pressure: 30.11 inHg

TAF
KHIO 182322Z 1900/1924 03008KT P6SM SKC FM190100 33008KT P6SM FEW040 FM190800 30005KT P6SM FEW025 FM191100 VRB03KT P6SM BKN025 FM191900 30004KT P6SM FEW035